Aérodrome :
LOGIN :

S'inscrire | Disclaimer

   EN    FR    IT 

 










Légende :    VFR   VFR Marginal   IFR   IFR Intensif   IFR Très Intensif
Visi : 
Plafond : 
>= 8 km
>= 3000ft
5 à 8 km
1000 à 3000 ft
1500m à 5 km
500 à 1000 ft
800 à 1500m
200 à 500 ft
< 800m
< 200 ft
Symboles :   Orages  Brouillard  Fortes neiges  Fortes précipitations  Vent > 20 kt
SIGMETs :   Divers  Orages  Givrage  Turbulence  Onde Orograph.  Cendres Volcan.






- Altitude de l'aérodrome : 12 ft
- Code IATA : NCE


LFMN - Nice

DERNIER METAR :
  • 070900Z 33012KT CAVOK 08/M03 Q1018 NOSIG

METARs EXPIRÉS :
  • 070830Z 33011KT CAVOK 07/M03 Q1019 NOSIG
  • 070800Z 35008KT CAVOK 06/M03 Q1019 NOSIG
  • 070730Z 34010KT CAVOK 06/M03 Q1018 NOSIG
  • 070700Z 33013KT CAVOK 05/M03 Q1018 NOSIG
  • 070630Z 33013KT CAVOK 05/M03 Q1018 NOSIG
  • 070600Z 33015KT CAVOK 06/M03 Q1017 NOSIG
  • 070530Z 33013KT CAVOK 06/M03 Q1017 NOSIG
  • 070500Z 34011KT CAVOK 05/M03 Q1017 NOSIG
  • 070430Z 34010KT CAVOK 06/M03 Q1017 NOSIG

TAF TAF LFMN
Valide du 07 à 09h jusqu'au 08 à 15h UTC


070800Z 0709/0815 34010KT CAVOK
BECMG 0710/0712 10008KT
BECMG 0717/0719 34010KT
BECMG 0803/0805 04015KT RA SCT015 OVC030
TEMPO 0809/0814 08020G30KT 4000 RA BKN015
ATIS : +33 4 93 17 21 16



MET'MAP, la Météo Aéronautique d'un coup d'oeil ! - Copyright ORBIFLY Décembre 2007 - Disclaimer

ORBIFLY MET'MAP TEAM :

Programmation & Développement : Alexandra Zaïnal
Sur une idée originale de : Baudouin d'Aumeries
Soutien technique & logistique : Manuel Goepfert
Assistance : Marc-Olivier Méhu




SOURCES & CREDITS :

   NOAA